createdAt,value
2023-02-28T00:01:49.586Z,28.00
2023-02-28T00:04:18.034Z,43.00
2023-02-28T00:06:46.471Z,22.20
2023-02-28T00:09:14.902Z,29.00
2023-02-28T00:11:43.346Z,25.20
2023-02-28T00:14:11.748Z,29.00
2023-02-28T00:16:40.306Z,1.00
2023-02-28T00:19:09.222Z,1.00
2023-02-28T00:21:37.622Z,1.00
2023-02-28T00:24:06.215Z,1.00
2023-02-28T00:26:34.774Z,1.00
2023-02-28T00:29:03.183Z,1.80
2023-02-28T00:31:31.559Z,12.90
2023-02-28T00:34:00.048Z,24.50
2023-02-28T00:36:28.519Z,24.70
2023-02-28T00:38:56.999Z,66.60
2023-02-28T00:41:25.428Z,99.10
2023-02-28T00:43:53.806Z,99.90
2023-02-28T00:46:22.275Z,99.90
2023-02-28T00:48:50.862Z,99.90
2023-02-28T00:51:19.347Z,99.90
2023-02-28T00:53:47.719Z,99.90
2023-02-28T00:56:16.175Z,99.90
2023-02-28T00:58:44.565Z,99.90
2023-02-28T01:01:13.282Z,99.90
2023-02-28T01:03:41.922Z,99.90
2023-02-28T01:06:10.658Z,99.90
2023-02-28T01:08:39.013Z,99.90
2023-02-28T01:11:17.030Z,99.90
2023-02-28T01:13:47.539Z,99.90
2023-02-28T01:16:16.128Z,99.90
2023-02-28T01:18:44.651Z,99.90
2023-02-28T01:21:16.220Z,99.90
2023-02-28T01:23:44.853Z,99.90
2023-02-28T01:26:19.771Z,99.90
2023-02-28T01:28:48.983Z,99.90
2023-02-28T01:31:17.934Z,99.90
2023-02-28T01:33:47.473Z,99.90
2023-02-28T01:36:19.631Z,99.90
2023-02-28T01:38:48.939Z,99.90
2023-02-28T01:41:21.028Z,99.90
2023-02-28T01:43:49.475Z,99.90
2023-02-28T01:46:18.990Z,99.90
2023-02-28T01:48:53.033Z,99.90
2023-02-28T01:51:52.210Z,99.90
2023-02-28T01:54:26.298Z,99.90
2023-02-28T01:57:12.316Z,99.90
2023-02-28T01:59:56.153Z,99.90
2023-02-28T02:02:26.343Z,99.90
2023-02-28T02:05:09.789Z,99.90
2023-02-28T02:07:43.461Z,99.90
2023-02-28T02:10:18.483Z,99.90
2023-02-28T02:13:23.862Z,99.90
2023-02-28T02:16:02.840Z,99.90
2023-02-28T02:18:45.446Z,99.90
2023-02-28T02:21:14.044Z,99.90
2023-02-28T02:23:48.606Z,99.90
2023-02-28T02:26:41.106Z,99.90
2023-02-28T02:29:24.746Z,99.90
2023-02-28T02:31:54.346Z,99.90
2023-02-28T02:34:44.036Z,99.90
2023-02-28T02:37:18.404Z,99.90
2023-02-28T02:40:00.406Z,99.90
2023-02-28T02:42:54.052Z,99.90
2023-02-28T02:45:30.239Z,99.90
2023-02-28T02:48:02.083Z,99.90
2023-02-28T02:50:37.300Z,99.90
2023-02-28T02:53:07.448Z,99.90
2023-02-28T02:55:40.750Z,99.90
2023-02-28T02:58:13.591Z,99.90
2023-02-28T03:00:48.468Z,99.90
2023-02-28T03:03:22.864Z,99.90
2023-02-28T03:05:52.767Z,99.90
2023-02-28T03:08:21.563Z,99.90
2023-02-28T03:11:04.274Z,99.90
2023-02-28T03:13:38.958Z,99.90
2023-02-28T03:16:25.918Z,99.90
2023-02-28T03:19:31.346Z,99.90
2023-02-28T03:22:03.071Z,99.90
2023-02-28T03:24:58.921Z,99.90
2023-02-28T03:27:30.418Z,99.90
2023-02-28T03:30:07.775Z,99.90
2023-02-28T03:33:00.449Z,99.90
2023-02-28T03:35:38.445Z,99.90
2023-02-28T03:38:23.012Z,99.90
2023-02-28T03:41:13.590Z,99.90
2023-02-28T03:43:46.093Z,98.90
2023-02-28T03:46:23.813Z,97.80
2023-02-28T03:49:08.511Z,96.90
2023-02-28T03:51:40.914Z,98.80
2023-02-28T03:54:15.000Z,99.10
2023-02-28T03:56:57.989Z,98.90
2023-02-28T03:59:41.970Z,99.90
2023-02-28T04:02:10.996Z,99.90
2023-02-28T04:04:39.475Z,99.90
2023-02-28T04:07:11.024Z,99.90
2023-02-28T04:09:39.501Z,99.90
2023-02-28T04:12:08.043Z,99.90
2023-02-28T04:14:36.462Z,99.90
2023-02-28T04:17:04.832Z,99.90
2023-02-28T04:19:33.302Z,99.90
2023-02-28T04:22:02.036Z,99.90
2023-02-28T04:24:31.007Z,99.90
2023-02-28T04:27:00.553Z,99.90
2023-02-28T04:29:35.279Z,99.90
2023-02-28T04:32:04.289Z,99.90
2023-02-28T04:34:34.453Z,99.90
2023-02-28T04:37:14.077Z,99.90
2023-02-28T04:39:43.466Z,99.90
2023-02-28T04:42:12.906Z,99.90
2023-02-28T04:44:41.466Z,99.90
2023-02-28T04:47:09.952Z,99.90
2023-02-28T04:49:38.325Z,99.90
2023-02-28T04:52:09.111Z,99.90
2023-02-28T04:54:37.605Z,99.90
2023-02-28T04:57:06.220Z,99.90
2023-02-28T04:59:34.919Z,99.90
2023-02-28T05:02:08.534Z,99.90
2023-02-28T05:04:37.829Z,99.90
2023-02-28T05:07:06.429Z,99.90
2023-02-28T05:09:37.610Z,99.90
2023-02-28T05:12:05.997Z,99.90
2023-02-28T05:14:34.452Z,99.90
2023-02-28T05:17:02.924Z,99.90
2023-02-28T05:19:31.581Z,99.90
2023-02-28T05:22:01.010Z,99.90
2023-02-28T05:24:29.521Z,99.90
2023-02-28T05:26:58.040Z,99.90
2023-02-28T05:29:26.429Z,99.90
2023-02-28T05:31:54.963Z,99.90
2023-02-28T05:34:23.450Z,99.90
2023-02-28T05:36:51.838Z,99.90
2023-02-28T05:39:20.272Z,99.90
2023-02-28T05:41:48.660Z,99.90
2023-02-28T05:44:17.826Z,99.90
2023-02-28T05:46:46.288Z,99.90
2023-02-28T05:49:15.347Z,99.90
2023-02-28T05:51:43.744Z,99.90
2023-02-28T05:54:13.895Z,99.90
2023-02-28T05:56:45.704Z,99.90
2023-02-28T05:59:16.947Z,99.90
2023-02-28T06:01:50.316Z,99.90
2023-02-28T06:04:31.181Z,99.90
2023-02-28T06:07:00.130Z,99.90
2023-02-28T06:09:28.569Z,99.90
2023-02-28T06:11:59.233Z,99.90
2023-02-28T06:14:27.919Z,99.90
2023-02-28T06:16:58.576Z,99.90
2023-02-28T06:19:27.938Z,99.90
2023-02-28T06:21:58.657Z,99.90
2023-02-28T06:24:29.804Z,99.90
2023-02-28T06:26:59.398Z,99.90
2023-02-28T06:29:28.429Z,99.90
2023-02-28T06:31:57.592Z,99.90
2023-02-28T06:34:26.317Z,99.90
2023-02-28T06:36:54.884Z,99.90
2023-02-28T06:39:23.617Z,99.90
2023-02-28T06:41:55.977Z,99.90
2023-02-28T06:44:25.257Z,99.90
2023-02-28T06:46:53.701Z,99.90
2023-02-28T06:49:22.154Z,99.90
2023-02-28T06:51:50.577Z,99.90
2023-02-28T06:54:19.024Z,99.90
2023-02-28T06:56:48.814Z,99.90
2023-02-28T06:59:18.159Z,99.90
2023-02-28T07:01:46.966Z,99.90
2023-02-28T07:04:15.414Z,99.90
2023-02-28T07:06:43.826Z,99.90
2023-02-28T07:09:12.581Z,99.90
2023-02-28T07:11:40.974Z,99.90
2023-02-28T07:14:10.187Z,99.90
2023-02-28T07:16:38.718Z,99.90
2023-02-28T07:19:07.380Z,99.90
2023-02-28T07:21:35.900Z,99.90
2023-02-28T07:24:04.364Z,99.90
2023-02-28T07:26:32.755Z,99.90
2023-02-28T07:29:01.258Z,99.90
2023-02-28T07:31:30.126Z,99.90
2023-02-28T07:33:59.120Z,99.90
2023-02-28T07:36:27.641Z,99.90
2023-02-28T07:38:57.335Z,99.90
2023-02-28T07:41:29.430Z,99.90
2023-02-28T07:43:59.382Z,99.90
2023-02-28T07:46:30.679Z,99.90
2023-02-28T07:49:01.358Z,99.90
2023-02-28T07:51:29.937Z,99.90
2023-02-28T07:53:58.950Z,99.90
2023-02-28T07:56:27.854Z,99.90
2023-02-28T07:58:57.215Z,99.90
2023-02-28T08:01:25.667Z,99.90
2023-02-28T08:03:54.168Z,99.90
2023-02-28T08:06:25.578Z,99.90
2023-02-28T08:08:55.127Z,99.90
2023-02-28T08:11:23.666Z,99.90
2023-02-28T08:13:52.663Z,99.90
2023-02-28T08:16:23.938Z,99.90
2023-02-28T08:18:56.748Z,99.90
2023-02-28T08:21:25.209Z,99.90
2023-02-28T08:23:54.128Z,99.90
2023-02-28T08:26:23.389Z,99.90
2023-02-28T08:28:51.929Z,99.90
2023-02-28T08:31:21.109Z,99.90
2023-02-28T08:33:52.152Z,99.90
2023-02-28T08:36:21.665Z,99.90
2023-02-28T08:38:50.078Z,99.90
2023-02-28T08:41:18.530Z,99.90
2023-02-28T08:43:46.952Z,99.90
2023-02-28T08:46:16.230Z,99.90
2023-02-28T08:48:45.856Z,99.90
2023-02-28T08:51:23.239Z,99.90
2023-02-28T08:53:51.713Z,99.90
2023-02-28T08:56:20.122Z,99.90
2023-02-28T08:58:50.008Z,99.90
2023-02-28T09:01:19.884Z,99.90
2023-02-28T09:03:50.142Z,99.90
2023-02-28T09:06:20.389Z,99.90
2023-02-28T09:08:49.493Z,99.90
2023-02-28T09:11:18.478Z,99.90
2023-02-28T09:13:47.441Z,99.90
2023-02-28T09:16:17.924Z,99.90
2023-02-28T09:18:47.414Z,99.90
2023-02-28T09:21:18.514Z,99.90
2023-02-28T09:23:48.654Z,99.90
2023-02-28T09:26:22.961Z,99.90
2023-02-28T09:28:51.811Z,99.90
2023-02-28T09:31:23.835Z,99.90
2023-02-28T09:33:53.604Z,99.90
2023-02-28T09:36:26.834Z,99.90
2023-02-28T09:39:00.151Z,99.90
2023-02-28T09:41:32.235Z,99.90
2023-02-28T09:44:06.332Z,99.90
2023-02-28T09:46:49.031Z,99.90
2023-02-28T09:49:24.843Z,99.90
2023-02-28T09:52:07.126Z,99.90
2023-02-28T09:54:35.977Z,99.90
2023-02-28T09:57:09.077Z,99.90
2023-02-28T10:00:01.568Z,99.90
2023-02-28T10:02:59.944Z,99.90
2023-02-28T10:05:39.231Z,99.90
2023-02-28T10:08:27.149Z,99.90
2023-02-28T10:11:02.728Z,99.90
2023-02-28T10:13:48.901Z,99.90
2023-02-28T10:16:22.329Z,99.90
2023-02-28T10:18:58.467Z,99.90
2023-02-28T10:22:05.705Z,99.90
2023-02-28T10:24:41.113Z,99.90
2023-02-28T10:27:20.408Z,99.90
2023-02-28T10:29:51.938Z,99.90
2023-02-28T10:32:25.984Z,99.90
2023-02-28T10:35:02.717Z,99.90
2023-02-28T10:37:31.955Z,99.90
2023-02-28T10:40:00.599Z,99.90
2023-02-28T10:42:31.279Z,99.90
2023-02-28T10:45:18.037Z,99.90
2023-02-28T10:48:00.490Z,99.90
2023-02-28T10:50:34.887Z,99.90
2023-02-28T10:53:26.345Z,99.90
2023-02-28T10:56:08.565Z,99.90
2023-02-28T10:59:07.741Z,99.90
2023-02-28T11:01:46.955Z,99.90
2023-02-28T11:04:41.796Z,99.90
2023-02-28T11:07:27.807Z,99.90
2023-02-28T11:10:00.608Z,99.90
2023-02-28T11:12:37.883Z,99.90
2023-02-28T11:15:26.842Z,99.90
2023-02-28T11:18:02.794Z,99.90
2023-02-28T11:20:34.546Z,99.90
2023-02-28T11:23:06.824Z,99.90
2023-02-28T11:25:40.045Z,99.90
2023-02-28T11:28:26.523Z,99.90
2023-02-28T11:31:17.148Z,99.90
2023-02-28T11:33:50.570Z,99.90
2023-02-28T11:36:31.055Z,99.90
2023-02-28T11:39:06.097Z,99.90
2023-02-28T11:41:47.623Z,99.90
2023-02-28T11:44:34.317Z,99.90
2023-02-28T11:47:20.802Z,99.90
2023-02-28T11:50:19.770Z,99.90
2023-02-28T11:52:53.776Z,99.90
2023-02-28T11:55:26.775Z,99.90
2023-02-28T11:58:25.498Z,99.90
2023-02-28T12:01:17.910Z,99.90
2023-02-28T12:04:17.199Z,99.90
2023-02-28T12:07:11.379Z,99.90
2023-02-28T12:09:54.936Z,99.90
2023-02-28T12:12:33.559Z,99.90
2023-02-28T12:15:17.298Z,99.90
2023-02-28T12:18:09.738Z,99.90
2023-02-28T12:20:50.603Z,99.90
2023-02-28T12:23:50.820Z,99.90
2023-02-28T12:26:34.834Z,99.90
2023-02-28T12:29:32.845Z,99.90
2023-02-28T12:32:27.923Z,99.90
2023-02-28T12:35:11.780Z,99.90
2023-02-28T12:37:43.474Z,99.90
2023-02-28T12:40:24.919Z,99.90
2023-02-28T12:43:13.678Z,99.90
2023-02-28T12:45:48.488Z,99.90
2023-02-28T12:48:44.569Z,99.90
2023-02-28T12:51:14.941Z,99.90
2023-02-28T12:53:56.854Z,99.90
2023-02-28T12:57:02.020Z,99.90
2023-02-28T12:59:41.041Z,99.90
2023-02-28T13:02:28.153Z,99.90
2023-02-28T13:05:02.279Z,99.90
2023-02-28T13:08:03.591Z,99.90
2023-02-28T13:10:51.645Z,99.90
2023-02-28T13:13:32.139Z,99.90
2023-02-28T13:16:03.595Z,99.90
2023-02-28T13:18:38.126Z,99.90
2023-02-28T13:21:11.601Z,99.90
2023-02-28T13:23:43.109Z,99.90
2023-02-28T13:26:14.547Z,99.90
2023-02-28T13:29:18.254Z,99.90
2023-02-28T13:32:07.783Z,99.90
2023-02-28T13:34:37.441Z,99.90
2023-02-28T13:37:24.265Z,99.90
2023-02-28T13:40:29.848Z,99.90
2023-02-28T13:42:58.481Z,99.90
2023-02-28T13:45:39.968Z,99.90
2023-02-28T13:48:21.302Z,99.90
2023-02-28T13:50:50.495Z,99.90
2023-02-28T13:53:18.997Z,99.90
2023-02-28T13:56:13.358Z,99.90
2023-02-28T13:58:52.330Z,99.90
2023-02-28T14:01:29.319Z,99.90
2023-02-28T14:04:34.916Z,99.90
2023-02-28T14:07:04.578Z,99.90
2023-02-28T14:09:43.058Z,99.90
2023-02-28T14:12:48.915Z,99.90
2023-02-28T14:15:41.145Z,99.90
2023-02-28T14:18:21.020Z,99.90
2023-02-28T14:20:51.999Z,99.90
2023-02-28T14:23:50.208Z,99.90
2023-02-28T14:26:46.234Z,99.90
2023-02-28T14:29:16.883Z,99.90
2023-02-28T14:32:14.293Z,99.90
2023-02-28T14:34:55.621Z,99.90
2023-02-28T14:37:35.802Z,99.90
2023-02-28T14:40:06.487Z,99.90
2023-02-28T14:42:39.704Z,99.90
2023-02-28T14:45:08.692Z,99.90
2023-02-28T14:47:38.168Z,99.90
2023-02-28T14:50:07.218Z,99.90
2023-02-28T14:52:36.972Z,99.90
2023-02-28T14:55:15.875Z,99.90
2023-02-28T14:57:57.455Z,99.90
2023-02-28T15:00:34.197Z,99.90
2023-02-28T15:03:19.190Z,99.90
2023-02-28T15:05:56.078Z,99.90
2023-02-28T15:08:25.180Z,99.90
2023-02-28T15:10:57.842Z,99.90
2023-02-28T15:13:36.780Z,99.90
2023-02-28T15:16:10.366Z,99.90
2023-02-28T15:18:53.263Z,99.90
2023-02-28T15:21:46.312Z,99.90
2023-02-28T15:24:27.036Z,99.90
2023-02-28T15:27:05.892Z,99.90
2023-02-28T15:29:52.687Z,99.90
2023-02-28T15:32:33.580Z,99.90
2023-02-28T15:35:37.545Z,99.90
2023-02-28T15:38:26.464Z,99.90
2023-02-28T15:41:01.051Z,99.90
2023-02-28T15:43:34.681Z,99.90
2023-02-28T15:46:11.625Z,99.90
2023-02-28T15:48:41.527Z,99.90
2023-02-28T15:51:18.594Z,99.90
2023-02-28T15:54:00.672Z,99.90
2023-02-28T15:56:35.297Z,99.90
2023-02-28T15:59:07.404Z,99.90
2023-02-28T16:01:40.420Z,99.90
2023-02-28T16:04:19.100Z,99.90
2023-02-28T16:06:57.378Z,99.90
2023-02-28T16:09:25.911Z,99.90
2023-02-28T16:11:57.101Z,99.90
2023-02-28T16:14:31.941Z,99.90
2023-02-28T16:17:07.298Z,99.90
2023-02-28T16:19:36.440Z,99.90
2023-02-28T16:22:04.828Z,99.90
2023-02-28T16:24:33.255Z,99.90
2023-02-28T16:27:02.637Z,99.90
2023-02-28T16:29:36.869Z,99.90
2023-02-28T16:32:08.060Z,99.90
2023-02-28T16:34:36.534Z,99.90
2023-02-28T16:37:06.464Z,99.20
2023-02-28T16:39:34.850Z,97.20
2023-02-28T16:42:03.306Z,92.30
2023-02-28T16:44:37.887Z,81.50
2023-02-28T16:47:06.846Z,74.00
2023-02-28T16:49:35.251Z,53.30
2023-02-28T16:52:03.625Z,26.60
2023-02-28T16:54:32.382Z,18.50
2023-02-28T16:57:01.204Z,1.00
2023-02-28T16:59:30.963Z,1.00
2023-02-28T17:02:00.215Z,1.00
2023-02-28T17:04:29.872Z,11.80
2023-02-28T17:06:58.315Z,14.00
2023-02-28T17:09:40.093Z,14.50
2023-02-28T17:12:10.900Z,12.90
2023-02-28T17:14:40.068Z,1.00
2023-02-28T17:17:09.733Z,8.80
2023-02-28T17:19:40.041Z,17.60
2023-02-28T17:22:10.817Z,1.00
2023-02-28T17:24:39.213Z,1.00
2023-02-28T17:27:09.445Z,1.00
2023-02-28T17:29:37.826Z,2.80
2023-02-28T17:32:17.130Z,12.30
2023-02-28T17:34:47.744Z,6.00
2023-02-28T17:37:16.370Z,9.50
2023-02-28T17:39:44.950Z,28.80
2023-02-28T17:42:14.604Z,17.80
2023-02-28T17:44:43.055Z,14.30
2023-02-28T17:47:14.514Z,5.20
2023-02-28T17:49:43.448Z,17.60
2023-02-28T17:52:11.893Z,13.10
2023-02-28T17:54:40.352Z,1.00
2023-02-28T17:57:11.584Z,12.20
2023-02-28T17:59:40.213Z,18.10
2023-02-28T18:02:09.173Z,46.10
2023-02-28T18:04:37.620Z,34.40
2023-02-28T18:07:07.845Z,50.90
2023-02-28T18:09:36.233Z,66.60
2023-02-28T18:12:04.758Z,63.70
2023-02-28T18:14:33.244Z,70.80
2023-02-28T18:17:01.875Z,86.90
2023-02-28T18:19:30.670Z,99.90
2023-02-28T18:21:59.166Z,96.60
2023-02-28T18:24:27.850Z,78.80
2023-02-28T18:26:56.753Z,83.30
2023-02-28T18:29:27.376Z,80.10
2023-02-28T18:31:57.220Z,93.30
2023-02-28T18:34:27.478Z,78.40
2023-02-28T18:36:56.077Z,99.90
2023-02-28T18:39:24.491Z,99.90
2023-02-28T18:41:52.940Z,99.90
2023-02-28T18:44:22.242Z,99.90
2023-02-28T18:46:51.968Z,99.90
2023-02-28T18:49:20.640Z,99.90
2023-02-28T18:51:49.697Z,99.90
2023-02-28T18:54:19.409Z,99.90
2023-02-28T18:56:47.876Z,99.90
2023-02-28T18:59:16.281Z,99.90
2023-02-28T19:01:45.407Z,99.90
2023-02-28T19:04:17.058Z,99.90
2023-02-28T19:06:45.548Z,99.90
2023-02-28T19:09:14.308Z,99.90
2023-02-28T19:11:42.874Z,99.90
2023-02-28T19:14:11.344Z,99.90
2023-02-28T19:16:39.819Z,99.90
2023-02-28T19:19:08.355Z,99.90
2023-02-28T19:21:37.933Z,99.90
2023-02-28T19:24:06.769Z,99.90
2023-02-28T19:26:35.284Z,99.90
2023-02-28T19:29:05.867Z,99.90
2023-02-28T19:31:34.592Z,99.90
2023-02-28T19:34:03.506Z,99.90
2023-02-28T19:36:31.974Z,99.90
2023-02-28T19:39:00.397Z,99.90
2023-02-28T19:41:29.149Z,99.90
2023-02-28T19:43:57.782Z,99.90
2023-02-28T19:46:27.060Z,99.90
2023-02-28T19:48:56.238Z,99.90
2023-02-28T19:51:24.709Z,99.90
2023-02-28T19:53:53.146Z,98.00
2023-02-28T19:56:21.754Z,99.90
2023-02-28T19:58:50.158Z,99.90
2023-02-28T20:01:21.282Z,99.90
2023-02-28T20:03:51.465Z,99.90
2023-02-28T20:06:19.908Z,99.90
2023-02-28T20:08:48.483Z,99.90
2023-02-28T20:11:18.690Z,99.90
2023-02-28T20:13:47.292Z,99.90
2023-02-28T20:16:17.091Z,99.90
2023-02-28T20:18:46.992Z,99.90
2023-02-28T20:21:17.511Z,99.90
2023-02-28T20:23:49.543Z,99.90
2023-02-28T20:26:20.877Z,99.90
2023-02-28T20:28:49.621Z,99.90
2023-02-28T20:31:24.179Z,99.90
2023-02-28T20:33:53.451Z,99.90
2023-02-28T20:36:23.349Z,99.90
2023-02-28T20:38:53.601Z,99.90
2023-02-28T20:41:22.800Z,99.90
2023-02-28T20:44:03.903Z,99.90
2023-02-28T20:46:35.207Z,99.90
2023-02-28T20:49:03.665Z,99.90
2023-02-28T20:51:32.302Z,99.90
2023-02-28T20:54:00.783Z,93.40
2023-02-28T20:56:29.371Z,91.50
2023-02-28T20:58:58.841Z,66.70
2023-02-28T21:01:29.644Z,66.40
2023-02-28T21:04:00.519Z,94.40
2023-02-28T21:06:35.538Z,76.40
2023-02-28T21:09:07.559Z,82.10
2023-02-28T21:11:37.938Z,47.40
2023-02-28T21:14:13.794Z,55.40
2023-02-28T21:16:42.855Z,58.50
2023-02-28T21:19:12.220Z,49.20
2023-02-28T21:21:46.491Z,65.70
2023-02-28T21:24:18.676Z,95.10
2023-02-28T21:26:48.179Z,80.70
2023-02-28T21:29:16.928Z,67.10
2023-02-28T21:31:45.408Z,56.10
2023-02-28T21:34:15.069Z,67.70
2023-02-28T21:36:48.920Z,81.90
2023-02-28T21:39:31.587Z,95.10
2023-02-28T21:42:04.476Z,99.90
2023-02-28T21:44:35.345Z,99.90
2023-02-28T21:47:04.071Z,99.90
2023-02-28T21:49:32.837Z,99.90
2023-02-28T21:52:01.674Z,99.90
2023-02-28T21:54:30.124Z,99.90
2023-02-28T21:56:58.856Z,99.90
2023-02-28T21:59:27.302Z,99.90
2023-02-28T22:01:56.347Z,99.90
2023-02-28T22:04:24.847Z,99.90
2023-02-28T22:06:57.887Z,99.90
2023-02-28T22:09:26.852Z,99.90
2023-02-28T22:11:55.741Z,99.90
2023-02-28T22:14:24.596Z,99.90
2023-02-28T22:16:55.232Z,99.90
2023-02-28T22:19:24.885Z,99.90
2023-02-28T22:21:54.568Z,99.90
2023-02-28T22:24:25.065Z,99.90
2023-02-28T22:26:54.215Z,99.90
2023-02-28T22:29:22.776Z,99.90
2023-02-28T22:31:51.933Z,99.90
2023-02-28T22:34:20.531Z,99.90
2023-02-28T22:36:48.921Z,99.90
2023-02-28T22:39:17.407Z,79.30
2023-02-28T22:41:46.268Z,37.80
2023-02-28T22:44:14.683Z,58.80
2023-02-28T22:46:43.163Z,74.70
2023-02-28T22:49:11.702Z,36.00
2023-02-28T22:51:40.268Z,33.70
2023-02-28T22:54:08.804Z,42.00
2023-02-28T22:56:37.222Z,44.20
2023-02-28T22:59:05.681Z,29.40
2023-02-28T23:01:35.950Z,31.00
2023-02-28T23:04:05.436Z,12.00
2023-02-28T23:06:43.139Z,36.30
2023-02-28T23:09:15.514Z,44.40
2023-02-28T23:11:47.488Z,37.50
2023-02-28T23:14:17.793Z,78.80
2023-02-28T23:16:52.061Z,92.70
2023-02-28T23:19:39.174Z,90.30
2023-02-28T23:22:08.147Z,84.80
2023-02-28T23:24:37.881Z,67.60
2023-02-28T23:27:08.306Z,61.60
2023-02-28T23:29:37.189Z,62.20
2023-02-28T23:32:06.460Z,70.50
2023-02-28T23:34:34.932Z,86.60
2023-02-28T23:37:03.836Z,77.00
2023-02-28T23:39:33.426Z,47.30
2023-02-28T23:42:02.628Z,40.20
2023-02-28T23:44:31.412Z,79.00
2023-02-28T23:46:59.805Z,88.60
2023-02-28T23:49:28.278Z,99.90
2023-02-28T23:51:56.662Z,99.90
2023-02-28T23:54:25.691Z,99.90
2023-02-28T23:56:54.947Z,99.90
2023-02-28T23:59:23.416Z,99.90
